Time;durP1;ratioP1;P1;durP2;ratioP2;P2;SDS_P1;SDS_P2;PMS_P1;PMS_P2;Temp;Humidity;BMP_temperature;BMP_pressure;BME280_temperature;BME280_humidity;BME280_pressure;Samples;Min_cycle;Max_cycle;Signal;HPM_P1;HPM_P2
2023/03/11 00:03:09;;;;;;;139.30;54.60;;;;;;;5.82;85.64;97490.13;674788;1264;139159;-93
2023/03/11 00:18:12;;;;;;;121.30;43.80;;;;;;;5.88;85.72;97478.02;674655;1264;140398;-93
2023/03/11 00:33:15;;;;;;;115.40;43.50;;;;;;;5.91;85.40;97451.36;674686;1263;139000;-91
2023/03/11 00:48:18;;;;;;;88.70;38.50;;;;;;;5.91;85.94;97437.08;672703;1264;139082;-92
2023/03/11 01:03:22;;;;;;;73.30;30.70;;;;;;;5.93;84.78;97420.38;674217;1265;139272;-91
2023/03/11 01:18:25;;;;;;;62.50;24.80;;;;;;;5.89;85.55;97403.85;673331;1259;139469;-92
2023/03/11 01:33:29;;;;;;;59.60;25.00;;;;;;;5.79;84.53;97405.86;672556;1265;138672;-91
2023/03/11 01:48:32;;;;;;;55.30;21.60;;;;;;;5.73;84.25;97399.21;671228;1264;139049;-91
2023/03/11 02:03:39;;;;;;;52.70;22.40;;;;;;;5.67;84.52;97394.02;670568;1259;138791;-92
2023/03/11 02:18:43;;;;;;;48.30;20.30;;;;;;;5.59;84.63;97386.11;671817;1265;139070;-91
2023/03/11 02:33:49;;;;;;;42.80;17.50;;;;;;;5.49;84.77;97385.98;671700;1264;138989;-92
2023/03/11 02:48:55;;;;;;;46.70;18.70;;;;;;;5.42;84.28;97397.87;676737;1264;139563;-91
2023/03/11 03:03:58;;;;;;;35.10;15.50;;;;;;;5.34;83.91;97404.29;672334;1265;138687;-91
2023/03/11 03:19:03;;;;;;;35.00;15.10;;;;;;;5.19;83.68;97415.04;670514;1263;139066;-90
2023/03/11 03:34:07;;;;;;;46.50;19.10;;;;;;;5.15;84.31;97428.76;672945;1264;140055;-91
2023/03/11 03:49:12;;;;;;;25.90;12.40;;;;;;;4.95;84.72;97441.16;670871;1273;139389;-90
2023/03/11 04:04:15;;;;;;;23.30;10.70;;;;;;;4.84;83.90;97458.71;672361;1260;139080;-91
2023/03/11 04:19:20;;;;;;;12.40;6.80;;;;;;;4.74;83.68;97455.24;670437;1278;138915;-92
2023/03/11 04:34:23;;;;;;;13.40;6.70;;;;;;;4.61;83.33;97465.59;671534;1276;138529;-89
2023/03/11 04:49:27;;;;;;;8.00;4.90;;;;;;;4.52;83.58;97490.11;675199;1265;140177;-90
2023/03/11 05:04:33;;;;;;;9.30;5.90;;;;;;;4.48;83.72;97504.37;672904;1261;139019;-87
2023/03/11 05:19:37;;;;;;;11.80;6.50;;;;;;;4.44;83.27;97513.27;670046;1262;138446;-91
2023/03/11 05:34:48;;;;;;;17.40;9.20;;;;;;;4.33;83.25;97537.27;672624;1260;139385;-90
2023/03/11 05:49:52;;;;;;;56.00;23.30;;;;;;;4.18;83.40;97553.05;673569;1272;139362;-90
2023/03/11 06:04:55;;;;;;;19.10;11.60;;;;;;;4.12;83.23;97558.04;673684;1264;138919;-89
2023/03/11 06:19:59;;;;;;;23.20;10.70;;;;;;;4.00;83.08;97580.71;674973;1267;140153;-92
2023/03/11 06:35:04;;;;;;;47.30;18.20;;;;;;;3.94;82.75;97609.54;674358;1266;139178;-91
2023/03/11 06:50:09;;;;;;;16.50;7.40;;;;;;;3.95;82.96;97644.34;672263;1265;139285;-91
2023/03/11 07:05:13;;;;;;;17.70;8.50;;;;;;;4.03;82.44;97692.92;671770;1265;138708;-91
2023/03/11 07:20:17;;;;;;;21.40;10.00;;;;;;;4.10;82.28;97723.05;672639;1263;139597;-90
2023/03/11 07:35:21;;;;;;;15.10;7.60;;;;;;;4.20;82.02;97744.34;673560;1265;138962;-88
2023/03/11 07:50:24;;;;;;;29.60;14.10;;;;;;;4.33;81.94;97770.63;673261;1265;139029;-89
2023/03/11 08:05:33;;;;;;;28.90;13.40;;;;;;;4.38;81.49;97809.48;669606;1266;138989;-89
2023/03/11 08:20:37;;;;;;;16.40;8.20;;;;;;;4.50;81.27;97846.95;671033;1265;138862;-89
2023/03/11 08:35:41;;;;;;;15.30;8.80;;;;;;;4.37;80.57;97875.67;672197;1264;138819;-90
2023/03/11 08:50:44;;;;;;;43.10;18.40;;;;;;;4.29;80.70;97903.52;670476;1265;139348;-90
2023/03/11 09:05:57;;;;;;;78.00;31.20;;;;;;;4.25;80.81;97957.73;669992;1264;139120;-88
2023/03/11 09:21:01;;;;;;;35.10;23.60;;;;;;;3.99;80.52;97989.31;669937;1265;139939;-88
2023/03/11 09:36:05;;;;;;;34.40;17.10;;;;;;;4.02;79.95;98025.31;670713;1274;139078;-88
2023/03/11 09:51:16;;;;;;;31.20;14.40;;;;;;;4.00;79.81;98056.65;672052;1273;139291;-85
2023/03/11 10:06:28;;;;;;;29.10;14.20;;;;;;;4.00;79.28;98093.69;672425;1266;138473;-88
2023/03/11 10:22:23;;;;;;;20.60;10.30;;;;;;;4.04;79.11;98125.02;670462;1266;138776;-85
2023/03/11 10:37:41;;;;;;;21.10;10.20;;;;;;;4.01;78.55;98162.79;670953;1261;138757;-90
2023/03/11 10:53:08;;;;;;;16.70;9.00;;;;;;;3.94;77.92;98191.83;670744;1266;138922;-87
2023/03/11 11:08:15;;;;;;;21.70;9.30;;;;;;;3.97;77.48;98221.60;669412;1266;138386;-88
2023/03/11 11:23:30;;;;;;;22.30;10.50;;;;;;;3.91;77.39;98250.05;668964;1265;138747;-89
2023/03/11 11:38:34;;;;;;;20.10;9.40;;;;;;;3.93;77.02;98293.96;669631;1264;139555;-84
2023/03/11 11:53:54;;;;;;;14.30;8.00;;;;;;;3.65;77.22;98320.38;669563;1265;138747;-85
2023/03/11 12:09:23;;;;;;;20.00;9.70;;;;;;;3.53;77.16;98343.02;670041;1264;138324;-89
2023/03/11 12:24:54;;;;;;;19.30;10.30;;;;;;;3.63;76.99;98370.17;673747;1260;138838;-85
2023/03/11 12:39:58;;;;;;;33.50;14.10;;;;;;;4.18;75.72;98393.92;673519;1260;140708;-86
2023/03/11 12:55:13;;;;;;;22.90;10.10;;;;;;;4.46;74.71;98421.66;671500;1261;139640;-88
2023/03/11 13:10:37;;;;;;;19.60;8.90;;;;;;;4.28;74.04;98458.45;672046;1264;139127;-84
2023/03/11 13:26:06;;;;;;;17.20;7.20;;;;;;;4.17;73.53;98505.42;672240;1263;138610;-86
2023/03/11 13:41:26;;;;;;;14.30;6.70;;;;;;;3.93;72.68;98534.58;672883;1265;139231;-85
2023/03/11 13:56:32;;;;;;;19.10;9.00;;;;;;;4.38;71.91;98554.45;672349;1260;139172;-84
2023/03/11 14:11:38;;;;;;;21.70;8.80;;;;;;;4.33;70.27;98586.08;670487;1265;139438;-86
2023/03/11 14:26:43;;;;;;;18.30;8.70;;;;;;;4.12;69.51;98620.09;670956;1264;138610;-84
2023/03/11 14:41:47;;;;;;;19.80;10.10;;;;;;;4.03;68.91;98661.37;670853;1268;139771;-85
2023/03/11 14:57:05;;;;;;;135.80;51.30;;;;;;;4.13;68.56;98679.13;669987;1263;138846;-86
2023/03/11 15:12:30;;;;;;;101.90;40.40;;;;;;;4.16;69.00;98708.15;671065;1267;138910;-85
2023/03/11 15:27:36;;;;;;;76.50;26.30;;;;;;;4.11;69.59;98732.63;668442;1264;140827;-86
2023/03/11 15:42:45;;;;;;;103.60;45.10;;;;;;;3.75;70.64;98757.42;669489;1262;143404;-84
2023/03/11 15:58:05;;;;;;;48.30;17.30;;;;;;;3.75;70.69;98778.86;681884;1261;139102;-85
2023/03/11 16:13:14;;;;;;;41.10;16.70;;;;;;;4.14;69.32;98807.45;681901;1265;138640;-84
2023/03/11 16:28:17;;;;;;;167.70;63.60;;;;;;;4.65;67.82;98849.69;681976;1264;139131;-84
2023/03/11 16:43:22;;;;;;;67.50;29.80;;;;;;;4.70;66.65;98881.68;681859;1264;138619;-83
2023/03/11 16:58:25;;;;;;;114.10;46.90;;;;;;;3.67;66.17;98900.92;681967;1263;139177;-83
2023/03/11 17:13:29;;;;;;;52.90;22.80;;;;;;;3.33;66.22;98929.42;681845;1266;139187;-83
2023/03/11 17:28:33;;;;;;;62.70;24.30;;;;;;;3.15;66.09;98963.48;682077;1262;138560;-82
2023/03/11 17:43:37;;;;;;;43.90;15.80;;;;;;;3.01;65.25;98986.15;681886;1263;138639;-82
2023/03/11 17:58:40;;;;;;;23.90;11.00;;;;;;;2.99;64.21;98998.43;682070;1265;138771;-83
2023/03/11 18:13:44;;;;;;;108.50;43.60;;;;;;;2.84;64.27;99022.54;682154;1262;137534;-83
2023/03/11 18:28:51;;;;;;;180.10;71.00;;;;;;;2.66;65.55;99039.61;681977;1261;138883;-82
2023/03/11 18:43:58;;;;;;;143.60;45.60;;;;;;;2.46;66.37;99049.31;682291;1264;139055;-83
2023/03/11 18:59:01;;;;;;;45.50;17.00;;;;;;;2.26;67.13;99063.53;681801;1264;139157;-83
2023/03/11 19:14:07;;;;;;;36.30;14.20;;;;;;;2.07;68.30;99078.02;682223;1262;138875;-82
2023/03/11 19:29:12;;;;;;;67.10;25.80;;;;;;;1.96;69.84;99103.66;682102;1259;138514;-84
2023/03/11 19:44:16;;;;;;;73.20;36.80;;;;;;;2.01;70.16;99131.42;682014;1263;138755;-83
2023/03/11 19:59:20;;;;;;;42.00;16.30;;;;;;;2.13;71.21;99144.02;681889;1264;138966;-84
2023/03/11 20:14:24;;;;;;;35.50;13.80;;;;;;;2.37;72.43;99146.10;682028;1263;139314;-83
2023/03/11 20:29:27;;;;;;;29.50;10.90;;;;;;;2.26;72.60;99157.40;682014;1264;138587;-81
2023/03/11 20:44:31;;;;;;;26.70;11.00;;;;;;;2.02;72.78;99180.83;681905;1265;139395;-83
2023/03/11 20:59:34;;;;;;;58.80;17.80;;;;;;;1.95;72.69;99179.45;681905;1265;139222;-82
2023/03/11 21:14:37;;;;;;;38.00;16.00;;;;;;;1.81;74.59;99184.73;682121;1264;138964;-82
2023/03/11 21:29:42;;;;;;;20.50;9.30;;;;;;;1.69;75.20;99178.79;681840;1264;139031;-80
2023/03/11 21:44:45;;;;;;;22.90;10.70;;;;;;;1.61;75.46;99160.25;681914;1263;138514;-81
2023/03/11 21:59:49;;;;;;;23.90;11.30;;;;;;;1.48;75.35;99164.36;682039;1265;139397;-82
2023/03/11 22:14:52;;;;;;;19.80;9.10;;;;;;;1.34;75.98;99158.09;682030;1264;139259;-80
2023/03/11 22:29:55;;;;;;;27.30;8.40;;;;;;;1.28;75.53;99159.13;681968;1264;138945;-81
2023/03/11 22:44:59;;;;;;;29.70;9.10;;;;;;;1.36;75.64;99154.86;681946;1260;138772;-81
2023/03/11 23:00:07;;;;;;;14.10;6.50;;;;;;;1.54;75.00;99152.91;682135;1265;139067;-82
2023/03/11 23:15:14;;;;;;;16.10;6.90;;;;;;;1.78;74.05;99148.53;682216;1264;138561;-82
2023/03/11 23:30:18;;;;;;;12.90;6.30;;;;;;;1.97;74.26;99144.82;681744;1268;138931;-84
2023/03/11 23:45:21;;;;;;;18.20;7.30;;;;;;;2.19;73.45;99133.58;681864;1265;139106;-82
